Time;durP1;ratioP1;P1;durP2;ratioP2;P2;SDS_P1;SDS_P2;PMS_P1;PMS_P2;Temp;Humidity;BMP_temperature;BMP_pressure;BME280_temperature;BME280_humidity;BME280_pressure;Samples;Min_cycle;Max_cycle;Signal;HPM_P1;HPM_P2
2020/12/01 00:01:53;;;;;;;4.43;4.07;;;17.40;99.90;;;;;;4241592;33;20405;-94
2020/12/01 00:04:21;;;;;;;5.00;3.37;;;17.40;99.90;;;;;;4256579;33;20500;-93
2020/12/01 00:06:49;;;;;;;3.60;3.30;;;17.40;99.90;;;;;;4256009;33;20076;-93
2020/12/01 00:09:17;;;;;;;4.10;3.70;;;17.30;99.90;;;;;;4258591;33;20111;-95
2020/12/01 00:11:45;;;;;;;4.07;3.87;;;17.30;99.90;;;;;;4243125;33;20072;-92
2020/12/01 00:14:14;;;;;;;5.15;3.28;;;17.30;99.90;;;;;;4253154;33;20532;-94
2020/12/01 00:16:45;;;;;;;4.75;4.00;;;17.30;99.90;;;;;;4254647;33;20098;-94
2020/12/01 00:19:14;;;;;;;6.37;4.70;;;17.30;99.90;;;;;;4253251;33;20109;-93
2020/12/01 00:21:45;;;;;;;9.80;5.15;;;17.30;99.90;;;;;;4245294;33;20117;-94
2020/12/01 00:24:13;;;;;;;4.43;4.03;;;17.30;99.90;;;;;;4250976;33;20061;-92
2020/12/01 00:26:43;;;;;;;4.20;3.40;;;17.20;99.90;;;;;;4241501;33;20092;-94
2020/12/01 00:29:11;;;;;;;3.65;3.45;;;17.30;99.90;;;;;;4256204;33;20066;-94
2020/12/01 00:31:41;;;;;;;3.95;3.37;;;17.30;99.90;;;;;;4253945;33;20193;-95
2020/12/01 00:34:11;;;;;;;4.75;3.58;;;17.30;99.90;;;;;;4247253;33;20061;-95
2020/12/01 00:36:40;;;;;;;4.12;3.70;;;17.30;99.90;;;;;;4242905;33;20097;-93
2020/12/01 00:39:09;;;;;;;3.85;3.40;;;17.30;99.90;;;;;;4255813;33;20110;-95
2020/12/01 00:41:38;;;;;;;4.22;3.58;;;17.30;99.90;;;;;;4263111;33;20345;-94
2020/12/01 00:44:07;;;;;;;4.60;3.70;;;17.40;99.90;;;;;;4256642;33;20392;-94
2020/12/01 00:46:34;;;;;;;5.03;3.60;;;17.40;99.90;;;;;;4250924;33;20094;-94
2020/12/01 00:49:03;;;;;;;7.65;4.10;;;17.40;99.90;;;;;;4243269;33;20152;-93
2020/12/01 00:51:32;;;;;;;8.93;3.58;;;17.40;99.90;;;;;;4268133;33;20050;-94
2020/12/01 00:54:00;;;;;;;5.68;3.35;;;17.40;99.90;;;;;;4253482;33;20054;-95
2020/12/01 00:56:28;;;;;;;2.40;2.20;;;17.30;99.90;;;;;;4265779;33;20072;-94
2020/12/01 00:58:56;;;;;;;3.75;2.72;;;17.30;99.90;;;;;;4262098;33;20411;-95
2020/12/01 01:01:26;;;;;;;5.45;3.22;;;17.30;99.90;;;;;;4243933;33;20112;-95
2020/12/01 01:03:55;;;;;;;8.52;2.97;;;17.30;99.90;;;;;;4252959;33;20084;-93
2020/12/01 01:06:23;;;;;;;2.83;2.62;;;17.30;99.90;;;;;;4253695;33;20046;-95
2020/12/01 01:08:51;;;;;;;3.62;2.60;;;17.20;99.90;;;;;;4270154;33;20144;-94
2020/12/01 01:11:27;;;;;;;3.15;2.95;;;17.20;99.90;;;;;;4246838;33;20113;-93
2020/12/01 01:13:56;;;;;;;6.35;2.85;;;17.20;99.90;;;;;;4261388;33;20061;-95
2020/12/01 01:16:25;;;;;;;4.10;3.10;;;17.20;99.90;;;;;;4250308;33;20061;-95
2020/12/01 01:18:53;;;;;;;3.40;3.10;;;17.10;99.90;;;;;;4259143;33;20097;-93
2020/12/01 01:21:23;;;;;;;6.35;3.00;;;17.00;99.90;;;;;;4262588;33;20062;-94
2020/12/01 01:23:52;;;;;;;5.32;2.97;;;16.90;99.90;;;;;;4255068;33;20057;-95
2020/12/01 01:26:21;;;;;;;4.35;3.92;;;16.90;99.90;;;;;;4257716;33;20058;-96
2020/12/01 01:28:48;;;;;;;5.32;4.00;;;17.00;99.90;;;;;;4248287;33;20523;-94
2020/12/01 01:31:18;;;;;;;4.00;3.80;;;17.00;99.90;;;;;;4242143;33;20095;-94
2020/12/01 01:33:46;;;;;;;4.28;3.90;;;17.00;99.90;;;;;;4268850;33;20079;-95
2020/12/01 01:36:14;;;;;;;12.27;4.85;;;17.00;99.90;;;;;;4257482;33;20171;-93
2020/12/01 01:38:43;;;;;;;8.30;4.80;;;17.00;99.90;;;;;;4237995;33;20681;-92
2020/12/01 01:41:11;;;;;;;3.22;2.92;;;17.00;99.90;;;;;;4256943;33;20944;-95
2020/12/01 01:43:39;;;;;;;6.05;3.25;;;17.00;99.90;;;;;;4269585;33;20092;-96
2020/12/01 01:46:40;;;;;;;3.53;3.33;;;17.10;99.90;;;;;;4259901;33;20084;-95
2020/12/01 01:49:14;;;;;;;6.47;3.70;;;17.10;99.90;;;;;;4250224;33;20058;-96
2020/12/01 01:51:48;;;;;;;;;;;17.10;99.90;;;;;;4252570;33;20115;-96
2020/12/01 01:54:19;;;;;;;2.72;2.53;;;17.10;99.90;;;;;;4261795;33;19956;-95
2020/12/01 01:56:52;;;;;;;4.35;3.17;;;17.10;99.90;;;;;;4261828;33;20062;-96
2020/12/01 01:59:22;;;;;;;3.60;3.40;;;17.10;99.90;;;;;;4248547;33;20079;-95
2020/12/01 02:01:51;;;;;;;4.32;3.28;;;17.00;99.90;;;;;;4265623;33;20049;-95
2020/12/01 02:04:20;;;;;;;7.68;3.70;;;17.00;99.90;;;;;;4261853;33;20655;-96
2020/12/01 02:06:52;;;;;;;9.38;3.55;;;17.10;99.90;;;;;;4247689;33;20072;-96
2020/12/01 02:09:42;;;;;;;5.78;3.30;;;17.10;99.90;;;;;;4257505;33;20109;-95
2020/12/01 02:12:13;;;;;;;3.78;3.30;;;17.10;99.90;;;;;;4255060;33;20045;-96
2020/12/01 02:14:47;;;;;;;4.18;3.85;;;17.10;99.90;;;;;;4262216;33;20069;-96
2020/12/01 02:17:24;;;;;;;4.30;3.97;;;17.10;99.90;;;;;;4252407;33;20088;-95
2020/12/01 02:19:57;;;;;;;8.43;3.65;;;17.00;99.90;;;;;;4247402;33;20078;-96
2020/12/01 02:22:28;;;;;;;4.78;3.40;;;17.00;99.90;;;;;;4250829;33;20064;-95
2020/12/01 02:24:57;;;;;;;4.05;3.75;;;17.10;99.90;;;;;;4265005;33;20367;-95
2020/12/01 02:27:27;;;;;;;4.50;3.90;;;17.00;99.90;;;;;;4251810;33;20049;-95
2020/12/01 02:29:59;;;;;;;4.00;3.70;;;17.00;99.90;;;;;;4258652;33;20075;-96
2020/12/01 02:32:27;;;;;;;4.15;3.85;;;17.00;99.90;;;;;;4253260;33;20050;-96
2020/12/01 02:34:59;;;;;;;4.55;3.70;;;16.90;99.90;;;;;;4262559;33;20113;-96
2020/12/01 02:37:29;;;;;;;5.00;4.03;;;16.90;99.90;;;;;;4249197;33;20080;-95
2020/12/01 02:39:59;;;;;;;5.03;4.62;;;16.90;99.90;;;;;;4243950;33;20655;-96
2020/12/01 02:42:28;;;;;;;5.80;2.62;;;16.90;99.90;;;;;;4248736;33;20096;-96
2020/12/01 02:44:57;;;;;;;4.80;4.32;;;16.80;99.90;;;;;;4262783;33;20441;-96
2020/12/01 02:47:41;;;;;;;6.37;3.70;;;16.70;99.90;;;;;;4258397;33;20109;-96
2020/12/01 02:50:12;;;;;;;7.25;3.97;;;16.70;99.90;;;;;;4270394;33;20062;-96
2020/12/01 02:52:40;;;;;;;4.37;3.97;;;16.70;99.90;;;;;;4250127;33;20096;-95
2020/12/01 02:55:09;;;;;;;7.25;3.90;;;16.80;99.90;;;;;;4243852;33;20066;-96
2020/12/01 02:57:37;;;;;;;6.65;4.12;;;16.80;99.90;;;;;;4254479;33;20074;-96
2020/12/01 03:00:06;;;;;;;4.30;3.90;;;16.80;99.90;;;;;;4237215;33;20129;-95
2020/12/01 03:02:35;;;;;;;4.93;3.87;;;16.80;99.90;;;;;;4260576;33;20065;-96
2020/12/01 03:05:04;;;;;;;5.18;3.90;;;16.80;99.90;;;;;;4249962;33;20062;-95
2020/12/01 03:07:32;;;;;;;4.15;3.65;;;16.80;99.90;;;;;;4253360;33;20375;-96
2020/12/01 03:10:00;;;;;;;6.22;3.97;;;16.80;99.90;;;;;;4265278;33;20124;-96
2020/12/01 03:12:30;;;;;;;8.18;4.87;;;16.70;99.90;;;;;;4249007;33;20084;-95
2020/12/01 03:15:00;;;;;;;4.55;4.25;;;16.70;99.90;;;;;;4265019;33;20071;-95
2020/12/01 03:17:28;;;;;;;8.25;4.00;;;16.60;99.90;;;;;;4246532;33;20066;-95
2020/12/01 03:19:56;;;;;;;6.45;4.30;;;16.60;99.90;;;;;;4263907;33;20436;-95
2020/12/01 03:22:24;;;;;;;6.22;5.87;;;;;;;;;;4256677;33;20100;-95
2020/12/01 03:24:52;;;;;;;11.18;4.22;;;16.50;99.90;;;;;;4259863;33;20058;-96
2020/12/01 03:27:21;;;;;;;5.87;5.37;;;16.50;99.90;;;;;;4259954;33;20105;-96
2020/12/01 03:29:49;;;;;;;4.93;4.57;;;16.60;99.90;;;;;;4259864;33;20079;-95
2020/12/01 03:32:18;;;;;;;4.78;4.03;;;16.70;99.90;;;;;;4249790;33;20096;-95
2020/12/01 03:34:45;;;;;;;9.48;7.30;;;16.70;99.90;;;;;;4255337;33;20129;-96
2020/12/01 03:37:14;;;;;;;5.12;4.72;;;16.70;99.90;;;;;;4260636;33;20111;-96
2020/12/01 03:39:43;;;;;;;4.37;4.07;;;16.80;99.90;;;;;;4238930;33;20411;-96
2020/12/01 03:42:12;;;;;;;7.20;4.35;;;16.80;99.90;;;;;;4241744;33;20080;-96
2020/12/01 03:44:39;;;;;;;5.45;4.97;;;16.70;99.90;;;;;;4248706;33;20089;-96
2020/12/01 03:47:09;;;;;;;6.80;4.30;;;16.70;99.90;;;;;;4260775;33;20059;-95
2020/12/01 03:49:38;;;;;;;4.80;3.58;;;16.70;99.90;;;;;;4264231;33;20053;-96
2020/12/01 03:52:07;;;;;;;3.87;3.42;;;16.70;99.90;;;;;;4255184;33;20454;-95
2020/12/01 03:54:35;;;;;;;3.78;3.28;;;16.80;99.90;;;;;;4265674;33;20478;-96
2020/12/01 03:57:03;;;;;;;4.90;3.60;;;16.80;99.90;;;;;;4248808;33;20122;-96
2020/12/01 03:59:31;;;;;;;5.43;3.55;;;16.80;99.90;;;;;;4270892;33;20116;-95
2020/12/01 04:02:01;;;;;;;5.62;3.60;;;16.90;99.90;;;;;;4260648;33;20072;-96
2020/12/01 04:04:32;;;;;;;3.72;3.42;;;16.90;99.90;;;;;;4241498;33;20441;-96
2020/12/01 04:07:00;;;;;;;7.95;3.97;;;16.80;99.90;;;;;;4246868;33;20141;-96
2020/12/01 04:09:27;;;;;;;6.10;4.07;;;16.80;99.90;;;;;;4249892;33;20105;-95
2020/12/01 04:11:56;;;;;;;10.70;3.97;;;16.80;99.90;;;;;;4261874;33;20068;-96
2020/12/01 04:14:25;;;;;;;3.75;3.45;;;16.90;99.90;;;;;;4258192;33;20115;-95
2020/12/01 04:16:53;;;;;;;4.40;3.65;;;16.90;99.90;;;;;;4249517;33;20109;-96
2020/12/01 04:19:22;;;;;;;4.15;3.67;;;17.10;99.90;;;;;;4257704;33;20076;-95
2020/12/01 04:21:50;;;;;;;9.10;3.37;;;16.80;99.90;;;;;;4266713;33;20089;-95
2020/12/01 04:24:18;;;;;;;4.32;3.60;;;16.80;99.90;;;;;;4257816;33;20916;-96
2020/12/01 04:26:46;;;;;;;5.47;4.25;;;16.70;99.90;;;;;;4259121;33;20377;-95
2020/12/01 04:29:14;;;;;;;5.57;5.20;;;16.60;99.90;;;;;;4256488;33;20101;-95
2020/12/01 04:31:42;;;;;;;6.15;4.12;;;16.60;99.90;;;;;;4256931;33;20053;-96
2020/12/01 04:34:12;;;;;;;5.25;4.95;;;16.60;99.90;;;;;;4250152;33;20082;-96
2020/12/01 04:36:40;;;;;;;7.12;4.30;;;16.70;99.90;;;;;;4247258;33;20050;-96
2020/12/01 04:39:09;;;;;;;4.70;4.30;;;16.70;99.90;;;;;;4278043;33;20086;-94
2020/12/01 04:41:38;;;;;;;5.00;3.90;;;16.60;99.90;;;;;;4265933;33;20085;-96
2020/12/01 04:44:16;;;;;;;6.78;4.22;;;16.70;99.90;;;;;;4265947;33;20088;-95
2020/12/01 04:46:45;;;;;;;5.20;4.70;;;16.70;99.90;;;;;;4265518;33;20101;-95
2020/12/01 04:49:34;;;;;;;4.97;4.70;;;16.70;99.90;;;;;;4271753;33;20093;-95
2020/12/01 04:52:14;;;;;;;4.43;4.05;;;16.70;99.90;;;;;;4273559;33;20049;-96
2020/12/01 04:55:00;;;;;;;5.05;4.65;;;16.70;99.90;;;;;;4265839;33;20093;-95
2020/12/01 04:58:11;;;;;;;4.20;3.78;;;16.70;99.90;;;;;;4291364;33;20062;-95
2020/12/01 05:01:13;;;;;;;4.20;3.85;;;16.80;99.90;;;;;;4261074;33;20041;-95
2020/12/01 05:04:00;;;;;;;4.87;4.47;;;16.80;99.90;;;;;;4259059;33;20109;-96
2020/12/01 05:09:17;;;;;;;5.57;5.28;;;16.80;99.90;;;;;;4254136;33;20126;-95
2020/12/01 05:11:57;;;;;;;5.25;4.78;;;16.70;99.90;;;;;;4249458;33;20065;-94
2020/12/01 05:14:42;;;;;;;5.35;4.50;;;16.70;99.90;;;;;;4250513;33;20069;-95
2020/12/01 05:17:26;;;;;;;6.55;6.00;;;16.50;99.90;;;;;;4249235;33;20109;-95
2020/12/01 05:19:54;;;;;;;7.00;5.25;;;16.40;99.90;;;;;;4262456;33;20117;-96
2020/12/01 05:22:22;;;;;;;5.20;4.80;;;16.50;99.90;;;;;;4247610;33;20068;-94
2020/12/01 05:24:53;;;;;;;5.10;4.80;;;16.50;99.90;;;;;;4248036;33;20067;-95
2020/12/01 05:27:36;;;;;;;5.30;5.10;;;16.50;99.90;;;;;;4263528;33;20486;-96
2020/12/01 05:30:13;;;;;;;4.35;4.10;;;16.50;99.90;;;;;;4249760;33;20095;-96
2020/12/01 05:32:55;;;;;;;5.28;4.87;;;16.50;99.90;;;;;;4274410;33;20073;-95
2020/12/01 05:35:29;;;;;;;7.37;4.60;;;16.40;99.90;;;;;;4259056;33;20128;-95
2020/12/01 05:38:04;;;;;;;5.43;4.90;;;16.50;99.90;;;;;;4251350;33;20062;-96
2020/12/01 05:40:34;;;;;;;4.43;3.90;;;16.50;99.90;;;;;;4252072;33;20117;-96
2020/12/01 05:43:03;;;;;;;8.18;4.90;;;16.50;99.90;;;;;;4262415;33;20085;-95
2020/12/01 05:45:34;;;;;;;7.25;6.70;;;16.40;99.90;;;;;;4252446;33;20071;-95
2020/12/01 05:48:13;;;;;;;5.95;5.53;;;16.40;99.90;;;;;;4251883;33;20058;-96
2020/12/01 05:51:15;;;;;;;6.00;5.40;;;16.30;99.90;;;;;;4251351;33;20058;-95
2020/12/01 05:53:55;;;;;;;6.57;6.25;;;16.30;99.90;;;;;;4242755;33;20136;-95
2020/12/01 05:56:24;;;;;;;7.10;6.50;;;16.10;99.90;;;;;;4259171;33;20108;-96
2020/12/01 05:59:03;;;;;;;6.70;4.20;;;15.90;99.90;;;;;;4261329;33;20085;-96
2020/12/01 06:01:45;;;;;;;6.22;5.93;;;15.80;99.90;;;;;;4252891;33;20385;-95
2020/12/01 06:04:24;;;;;;;3.40;3.20;;;15.60;99.90;;;;;;4249339;33;20152;-96
2020/12/01 06:07:05;;;;;;;5.55;4.78;;;15.50;99.90;;;;;;4259413;33;20643;-96
2020/12/01 06:10:11;;;;;;;5.25;4.85;;;15.50;99.90;;;;;;4249912;33;20109;-96
2020/12/01 06:12:42;;;;;;;;;;;15.50;99.90;;;;;;4270451;33;20101;-95
2020/12/01 06:15:29;;;;;;;5.70;5.20;;;15.50;99.90;;;;;;4249316;33;19949;-96
2020/12/01 06:18:05;;;;;;;5.10;4.70;;;15.60;99.90;;;;;;4249250;33;20066;-96
2020/12/01 06:20:43;;;;;;;5.37;4.43;;;15.60;99.90;;;;;;4270571;33;20087;-96
2020/12/01 06:23:55;;;;;;;5.97;5.40;;;15.60;99.90;;;;;;4262037;33;20525;-96
2020/12/01 06:27:05;;;;;;;5.10;4.68;;;15.60;99.90;;;;;;4257640;33;20100;-96
2020/12/01 06:29:54;;;;;;;4.32;4.10;;;15.50;99.90;;;;;;4258151;33;20510;-96
2020/12/01 06:33:08;;;;;;;5.72;4.35;;;15.60;99.90;;;;;;4246319;33;20105;-95
2020/12/01 06:36:32;;;;;;;4.40;4.10;;;15.60;99.90;;;;;;4257134;33;20834;-94
2020/12/01 06:39:20;;;;;;;4.97;4.32;;;15.80;99.90;;;;;;4249547;33;20057;-94
2020/12/01 06:42:14;;;;;;;2.78;2.62;;;16.10;99.90;;;;;;4268223;33;20085;-95
2020/12/01 06:44:50;;;;;;;5.80;2.40;;;16.40;99.90;;;;;;4249750;33;20264;-94
2020/12/01 06:47:22;;;;;;;;;;;16.60;99.90;;;;;;4245867;33;20074;-95
2020/12/01 06:49:56;;;;;;;3.47;3.30;;;16.70;99.90;;;;;;4261755;33;19957;-95
2020/12/01 06:52:24;;;;;;;7.37;4.60;;;16.70;99.90;;;;;;4249104;33;20165;-96
2020/12/01 06:54:57;;;;;;;4.20;3.72;;;16.80;99.90;;;;;;4259910;33;20100;-96
2020/12/01 06:57:37;;;;;;;3.62;3.35;;;16.80;99.90;;;;;;4257792;33;20693;-96
2020/12/01 07:00:09;;;;;;;4.25;3.97;;;16.90;99.90;;;;;;4258273;33;20106;-96
2020/12/01 07:02:39;;;;;;;4.05;2.90;;;16.90;99.90;;;;;;4248760;33;20102;-95
2020/12/01 07:05:31;;;;;;;4.78;3.28;;;16.90;99.90;;;;;;4256202;33;20121;-95
2020/12/01 07:08:22;;;;;;;4.78;4.32;;;16.90;99.90;;;;;;4246457;33;20132;-95
2020/12/01 07:11:01;;;;;;;7.10;4.20;;;16.80;99.90;;;;;;4259539;33;20092;-95
2020/12/01 07:14:01;;;;;;;5.03;2.40;;;16.70;99.90;;;;;;4258563;33;20096;-96
2020/12/01 07:16:37;;;;;;;3.85;2.85;;;16.60;99.90;;;;;;4247320;33;20065;-94
2020/12/01 07:19:39;;;;;;;4.25;3.00;;;16.50;99.90;;;;;;4267817;33;20083;-96
2020/12/01 07:22:46;;;;;;;3.03;2.70;;;16.60;99.90;;;;;;4235682;33;20083;-95
2020/12/01 07:25:54;;;;;;;5.70;3.33;;;16.60;99.90;;;;;;4240245;33;20100;-95
2020/12/01 07:28:49;;;;;;;6.22;4.35;;;16.80;99.90;;;;;;4261214;33;20125;-96
2020/12/01 07:31:28;;;;;;;3.30;3.00;;;16.60;99.90;;;;;;4241151;33;20065;-95
2020/12/01 07:34:06;;;;;;;4.30;4.00;;;16.70;99.90;;;;;;4244837;33;20402;-94
2020/12/01 07:36:42;;;;;;;3.72;3.45;;;16.70;99.90;;;;;;4245285;33;20077;-94
2020/12/01 07:39:27;;;;;;;4.78;3.55;;;16.60;99.90;;;;;;4233347;33;20676;-95
2020/12/01 07:42:04;;;;;;;6.20;5.40;;;16.80;99.90;;;;;;4242366;33;20069;-94
2020/12/01 07:44:41;;;;;;;17.23;15.85;;;17.00;99.90;;;;;;4259051;33;20530;-95
2020/12/01 07:47:20;;;;;;;7.70;7.03;;;17.00;99.90;;;;;;4257066;33;20054;-93
2020/12/01 07:50:02;;;;;;;2.30;0.93;;;17.00;99.90;;;;;;4269856;33;20125;-96
2020/12/01 07:52:36;;;;;;;4.93;4.53;;;17.20;99.90;;;;;;4258253;33;20065;-95
2020/12/01 07:55:05;;;;;;;;;;;;;;;;;;4246923;33;20505;-95
2020/12/01 07:57:33;;;;;;;3.30;0.77;;;18.70;99.90;;;;;;4252032;33;19971;-95
2020/12/01 08:00:03;;;;;;;3.05;1.00;;;19.20;99.90;;;;;;4263835;33;20093;-95
2020/12/01 08:02:39;;;;;;;5.55;4.25;;;19.50;99.90;;;;;;4242030;33;20112;-96
2020/12/01 08:05:12;;;;;;;4.10;1.37;;;20.30;99.90;;;;;;4264624;33;20144;-95
2020/12/01 08:07:40;;;;;;;6.53;5.90;;;21.50;99.90;;;;;;4253062;33;20080;-95
2020/12/01 08:10:13;;;;;;;3.92;2.47;;;21.60;99.90;;;;;;4254750;33;20092;-96
2020/12/01 08:12:44;;;;;;;7.43;2.20;;;21.90;99.90;;;;;;4250859;33;20100;-96
2020/12/01 08:15:22;;;;;;;2.05;1.83;;;22.50;99.90;;;;;;4246886;33;20079;-96
2020/12/01 08:17:52;;;;;;;4.43;2.70;;;23.30;99.90;;;;;;4251223;33;20057;-94
2020/12/01 08:20:23;;;;;;;3.75;1.10;;;;;;;;;;4255171;33;20170;-94
2020/12/01 08:23:07;;;;;;;3.90;3.58;;;24.40;99.90;;;;;;4245695;33;20131;-96
2020/12/01 08:26:09;;;;;;;4.35;3.12;;;24.60;99.90;;;;;;4255864;33;20482;-96
2020/12/01 08:28:48;;;;;;;5.97;5.50;;;24.60;99.90;;;;;;4239745;33;20053;-96
2020/12/01 08:31:24;;;;;;;8.25;5.62;;;25.70;99.90;;;;;;4253717;33;20719;-95
2020/12/01 08:34:13;;;;;;;6.97;6.47;;;26.00;99.90;;;;;;4258481;33;20745;-95
2020/12/01 08:37:16;;;;;;;8.57;8.13;;;25.80;99.90;;;;;;4253000;33;20625;-96
2020/12/01 08:40:03;;;;;;;9.02;8.52;;;;;;;;;;4255274;33;20187;-96
2020/12/01 08:42:32;;;;;;;10.30;9.65;;;;;;;;;;4260141;33;20400;-96
2020/12/01 08:45:04;;;;;;;12.90;12.13;;;;;;;;;;4246276;33;20113;-93
2020/12/01 08:47:33;;;;;;;11.68;11.07;;;27.60;97.50;;;;;;4269478;33;20120;-93
2020/12/01 08:50:14;;;;;;;16.08;15.23;;;27.40;96.90;;;;;;4259188;33;20062;-94
2020/12/01 08:52:45;;;;;;;12.32;11.60;;;27.60;95.90;;;;;;4272231;33;20080;-92
2020/12/01 08:55:32;;;;;;;16.65;15.82;;;28.10;95.70;;;;;;4270984;33;20456;-94
2020/12/01 08:58:27;;;;;;;14.82;14.13;;;28.40;94.80;;;;;;4261612;33;20065;-93
2020/12/01 09:01:02;;;;;;;17.17;16.42;;;28.90;93.40;;;;;;4261455;33;20081;-93
2020/12/01 09:03:33;;;;;;;16.23;15.25;;;29.30;92.30;;;;;;4268482;33;20050;-93
2020/12/01 09:06:19;;;;;;;17.13;16.20;;;29.30;91.80;;;;;;4255835;33;20049;-94
2020/12/01 09:08:59;;;;;;;19.17;18.17;;;;;;;;;;4243161;33;20105;-93
2020/12/01 09:12:05;;;;;;;21.17;20.08;;;;;;;;;;4266414;33;20074;-93
2020/12/01 09:14:49;;;;;;;19.35;18.37;;;;;;;;;;4260886;33;20101;-93
2020/12/01 09:17:28;;;;;;;21.65;20.45;;;;;;;;;;4266056;33;20058;-92
2020/12/01 09:23:19;;;;;;;20.60;19.60;;;;;;;;;;4264864;33;20957;-92
2020/12/01 09:25:48;;;;;;;23.12;21.67;;;;;;;;;;4261014;33;20090;-93
2020/12/01 09:28:19;;;;;;;27.55;25.98;;;;;;;;;;4265447;33;20045;-93
2020/12/01 09:30:47;;;;;;;21.80;20.75;;;;;;;;;;4263945;33;20061;-94
2020/12/01 09:33:19;;;;;;;24.02;22.60;;;;;;;;;;4265129;33;20092;-92
2020/12/01 09:35:48;;;;;;;27.75;26.05;;;;;;;;;;4258308;33;20177;-92
2020/12/01 09:38:17;;;;;;;27.00;25.70;;;;;;;;;;4254420;33;20123;-92
2020/12/01 09:40:49;;;;;;;24.98;23.65;;;;;;;;;;4262757;33;20101;-93
2020/12/01 09:46:05;;;;;;;25.40;23.90;;;;;;;;;;4261310;33;20102;-92
2020/12/01 09:48:37;;;;;;;25.35;24.15;;;;;;;;;;4264930;33;20081;-93
2020/12/01 09:51:06;;;;;;;28.05;26.50;;;;;;;;;;4264515;33;20076;-92
2020/12/01 09:53:46;;;;;;;23.30;22.05;;;;;;;;;;4268946;33;20093;-93
2020/12/01 09:56:40;;;;;;;23.33;22.02;;;;;;;;;;4260117;33;20065;-91
2020/12/01 09:59:38;;;;;;;32.47;30.42;;;;;;;;;;4271777;33;20080;-92
2020/12/01 10:05:23;;;;;;;29.48;28.10;;;;;;;;;;4250843;33;20062;-91
2020/12/01 10:27:24;;;;;;;23.95;22.87;;;30.50;80.90;;;;;;4259796;33;20095;-91
2020/12/01 10:35:40;;;;;;;14.57;13.77;;;;;;;;;;4231075;33;20123;-90
2020/12/01 10:38:08;;;;;;;20.55;19.55;;;;;;;;;;4251866;33;20778;-90
2020/12/01 10:40:37;;;;;;;20.37;18.87;;;;;;;;;;4272419;33;20082;-92
2020/12/01 10:43:05;;;;;;;9.05;8.38;;;;;;;;;;4259909;33;20591;-91
2020/12/01 10:45:34;;;;;;;7.60;7.07;;;;;;;;;;4259775;33;20411;-91
2020/12/01 10:48:17;;;;;;;;;;;;;;;;;;4275972;33;20402;-90
2020/12/01 10:50:45;;;;;;;16.80;15.80;;;;;;;;;;4269001;33;20036;-90
2020/12/01 10:53:14;;;;;;;3.12;2.20;;;;;;;;;;4264582;33;20118;-91
2020/12/01 10:55:42;;;;;;;21.83;20.65;;;;;;;;;;4257055;33;20057;-90
2020/12/01 10:58:11;;;;;;;14.07;13.27;;;;;;;;;;4273183;33;20444;-89
2020/12/01 11:00:39;;;;;;;14.25;13.55;;;;;;;;;;4275035;33;20100;-91
2020/12/01 11:03:07;;;;;;;4.65;4.30;;;;;;;;;;4266613;33;20606;-89
2020/12/01 11:05:36;;;;;;;13.45;12.68;;;;;;;;;;4275765;33;20112;-90
2020/12/01 11:08:04;;;;;;;13.80;12.80;;;;;;;;;;4267539;33;20057;-91
2020/12/01 11:10:33;;;;;;;11.20;10.32;;;;;;;;;;4266413;33;20050;-90
2020/12/01 11:13:02;;;;;;;13.55;12.82;;;;;;;;;;4258154;33;20113;-91
2020/12/01 11:15:30;;;;;;;12.35;11.68;;;;;;;;;;4259647;33;20062;-90
2020/12/01 11:17:58;;;;;;;12.23;11.63;;;;;;;;;;4256953;33;20406;-91
2020/12/01 11:20:26;;;;;;;11.57;10.95;;;;;;;;;;4269530;33;20455;-91
2020/12/01 11:22:55;;;;;;;12.43;11.65;;;;;;;;;;4265056;33;20073;-91
2020/12/01 11:25:23;;;;;;;8.85;8.35;;;;;;;;;;4262032;33;20085;-90
2020/12/01 11:27:51;;;;;;;8.05;7.62;;;;;;;;;;4263615;33;20796;-91
2020/12/01 11:30:22;;;;;;;9.10;8.40;;;;;;;;;;4260414;33;20114;-91
2020/12/01 11:32:51;;;;;;;6.70;6.40;;;;;;;;;;4257276;33;20066;-91
2020/12/01 11:35:22;;;;;;;6.10;5.80;;;;;;;;;;4271803;33;20050;-91
2020/12/01 11:37:51;;;;;;;5.70;5.35;;;;;;;;;;4265510;33;20061;-91
2020/12/01 11:40:20;;;;;;;5.37;5.10;;;32.40;67.00;;;;;;4261535;33;20082;-91
2020/12/01 11:42:49;;;;;;;5.32;4.95;;;32.30;66.40;;;;;;4261130;33;20110;-90
2020/12/01 11:45:19;;;;;;;2.37;1.25;;;32.60;67.10;;;;;;4264553;33;20065;-91
2020/12/01 11:47:47;;;;;;;3.75;3.55;;;31.50;64.40;;;;;;4264917;33;20079;-90
2020/12/01 11:50:15;;;;;;;1.77;1.67;;;30.60;70.60;;;;;;4266879;33;20903;-91
2020/12/01 11:52:43;;;;;;;3.80;3.17;;;30.10;70.70;;;;;;4265224;33;20068;-90
2020/12/01 11:55:24;;;;;;;4.25;3.03;;;29.40;75.00;;;;;;4260117;33;20075;-90
2020/12/01 11:57:52;;;;;;;5.30;4.97;;;30.70;73.70;;;;;;4252905;33;20452;-89
2020/12/01 12:00:22;;;;;;;5.68;5.28;;;;;;;;;;4260677;33;20071;-91
2020/12/01 12:02:50;;;;;;;4.22;3.00;;;;;;;;;;4275550;33;20069;-91
2020/12/01 12:05:19;;;;;;;2.58;0.50;;;;;;;;;;4250093;33;20139;-90
2020/12/01 12:07:47;;;;;;;2.72;0.52;;;26.40;91.60;;;;;;4266752;33;20057;-89
2020/12/01 12:10:15;;;;;;;2.08;0.98;;;24.90;96.40;;;;;;4262928;33;20093;-90
2020/12/01 12:12:43;;;;;;;7.32;3.80;;;26.70;94.50;;;;;;4269600;33;20065;-90
2020/12/01 12:15:11;;;;;;;5.55;3.35;;;28.50;92.60;;;;;;4261606;33;20065;-90
2020/12/01 12:17:39;;;;;;;4.45;3.58;;;27.60;93.50;;;;;;4264827;33;20132;-91
2020/12/01 12:20:07;;;;;;;3.37;3.10;;;29.50;91.00;;;;;;4254071;33;20066;-90
2020/12/01 12:22:35;;;;;;;0.90;0.68;;;;;;;;;;4268416;33;20054;-89
2020/12/01 12:25:03;;;;;;;2.85;2.10;;;29.60;82.60;;;;;;4262537;33;20358;-89
2020/12/01 12:27:33;;;;;;;6.53;2.53;;;28.80;90.50;;;;;;4275524;33;20121;-89
2020/12/01 12:30:01;;;;;;;3.20;0.90;;;27.00;92.90;;;;;;4263879;33;20069;-89
2020/12/01 12:32:30;;;;;;;1.48;1.20;;;;;;;;;;4263266;33;20121;-89
2020/12/01 12:34:58;;;;;;;1.55;1.10;;;;;;;;;;4259552;33;20121;-89
2020/12/01 12:37:27;;;;;;;2.85;0.55;;;;;;;;;;4265786;33;20061;-89
2020/12/01 12:39:55;;;;;;;2.45;0.77;;;;;;;;;;4252229;33;20097;-89
2020/12/01 12:42:23;;;;;;;1.65;0.80;;;;;;;;;;4268219;33;20094;-89
2020/12/01 12:44:51;;;;;;;3.10;1.23;;;;;;;;;;4262535;33;20077;-88
2020/12/01 12:47:20;;;;;;;1.85;0.93;;;;;;;;;;4257186;33;20112;-89
2020/12/01 12:49:48;;;;;;;2.97;0.82;;;;;;;;;;4263466;33;20109;-89
2020/12/01 12:52:17;;;;;;;3.62;1.70;;;;;;;;;;4266320;33;20432;-90
2020/12/01 12:54:45;;;;;;;2.92;1.08;;;;;;;;;;4267182;33;20135;-89
2020/12/01 12:57:13;;;;;;;1.73;0.60;;;;;;;;;;4261771;33;20081;-89
2020/12/01 12:59:41;;;;;;;1.05;0.62;;;;;;;;;;4261071;33;20061;-90
2020/12/01 13:02:10;;;;;;;4.90;1.85;;;;;;;;;;4261835;33;20065;-89
2020/12/01 13:04:38;;;;;;;2.83;0.70;;;;;;;;;;4265664;33;20740;-89
2020/12/01 13:07:07;;;;;;;6.40;1.12;;;;;;;;;;4263320;33;20107;-89
2020/12/01 13:09:35;;;;;;;2.25;0.80;;;;;;;;;;4264891;33;20111;-88
2020/12/01 13:12:04;;;;;;;2.97;0.55;;;;;;;;;;4267550;33;20451;-89
2020/12/01 13:14:32;;;;;;;4.47;1.27;;;;;;;;;;4278316;33;20045;-91
2020/12/01 13:17:00;;;;;;;1.33;0.85;;;;;;;;;;4256747;33;20398;-89
2020/12/01 13:19:28;;;;;;;2.58;0.90;;;;;;;;;;4260481;33;20114;-89
2020/12/01 13:21:56;;;;;;;3.03;1.05;;;;;;;;;;4249593;33;20415;-89
2020/12/01 13:24:25;;;;;;;2.12;0.75;;;;;;;;;;4259617;33;20496;-89
2020/12/01 13:26:53;;;;;;;1.52;0.60;;;;;;;;;;4270155;33;20114;-88
2020/12/01 13:29:22;;;;;;;2.37;0.70;;;;;;;;;;4263850;33;20055;-87
2020/12/01 13:31:50;;;;;;;3.37;0.82;;;;;;;;;;4261046;33;20106;-88
2020/12/01 13:34:18;;;;;;;6.45;1.23;;;;;;;;;;4261772;33;20092;-87
2020/12/01 13:36:46;;;;;;;1.20;0.60;;;;;;;;;;4259294;33;20065;-88
2020/12/01 13:39:15;;;;;;;2.70;0.90;;;;;;;;;;4260206;33;20101;-88
2020/12/01 13:41:43;;;;;;;4.03;0.70;;;;;;;;;;4262599;33;20078;-89
2020/12/01 13:44:11;;;;;;;1.58;0.80;;;;;;;;;;4267643;33;20075;-91
2020/12/01 13:46:41;;;;;;;3.97;1.30;;;;;;;;;;4270273;33;20080;-91
2020/12/01 13:49:11;;;;;;;2.22;1.20;;;;;;;;;;4259712;33;20118;-89
2020/12/01 13:51:39;;;;;;;3.80;1.30;;;;;;;;;;4260286;33;20145;-90
2020/12/01 13:54:09;;;;;;;2.05;0.88;;;;;;;;;;4259172;33;20082;-89
2020/12/01 13:56:37;;;;;;;2.65;0.80;;;;;;;;;;4266920;33;20061;-89
2020/12/01 13:59:05;;;;;;;2.83;0.73;;;;;;;;;;4265313;33;20105;-89
2020/12/01 14:01:34;;;;;;;2.62;0.82;;;;;;;;;;4265056;33;20395;-89
2020/12/01 14:04:03;;;;;;;3.10;0.98;;;;;;;;;;4264589;33;20105;-89
2020/12/01 14:06:31;;;;;;;3.72;0.50;;;22.60;99.90;;;;;;4267359;33;20049;-87
2020/12/01 14:08:59;;;;;;;2.25;0.60;;;22.60;99.90;;;;;;4267675;33;20066;-88
2020/12/01 14:11:27;;;;;;;2.72;0.60;;;22.60;99.90;;;;;;4274593;33;20563;-88
2020/12/01 14:13:55;;;;;;;4.93;1.02;;;22.60;99.90;;;;;;4270718;33;20049;-88
2020/12/01 14:16:23;;;;;;;1.25;0.70;;;22.70;99.90;;;;;;4260607;33;20121;-88
2020/12/01 14:18:52;;;;;;;1.30;0.60;;;22.60;99.90;;;;;;4264701;33;20046;-88
2020/12/01 14:21:20;;;;;;;2.58;0.70;;;;;;;;;;4263642;33;20109;-88
2020/12/01 14:23:48;;;;;;;2.05;0.60;;;;;;;;;;4269557;33;20076;-88
2020/12/01 14:26:16;;;;;;;7.85;0.80;;;;;;;;;;4272074;33;20084;-89
2020/12/01 14:28:45;;;;;;;2.08;0.75;;;;;;;;;;4260037;33;20086;-89